MET'MAP v2.0
soon released !

Expected late october,
this new version will be
more efficient, smarter,
and hosted on a brand new
server x3 powerfull...
...and still free !


Not compatible ?
Try the mobile version !

LOG IN : | Subscribe | Disclaimer | Who is Orbifly ? |
ICAO code :
Legend : VFR Marginal VFR IFR Intensive IFR Very Intensive IFR
Visi :
Ceiling :
>= 8 km
>= 3000ft
5 to 8 km
1000 to 3000 ft
1500m to 5 km
500 to 1000 ft
800 to 1500m
200 to 500 ft
< 800m
< 200 ft

METAR - EDHL Lübeck - 30 Mar 2020 13:03 UTC - Data Source NOAA   


- Airport Elevation : 53 ft
- IATA code : LBC
- No reported NOTAMs.


EDHL - Lübeck

Latest METAR recorded : 2015/08/11 07:50 EDHL 110750Z 36004KT 290V050 9999 BKN006 18/17 Q1017 RMK ATIS HOT
TAF TAF EDHL
Valid from the 30 at 09:00 until the 30 at 18:00 UTC


300800Z 3009/3018 24007KT 4500 -SNRA BKN007
PROB30
TEMPO 3009/3011 2500 -SN BKN004
BECMG 3009/3012 35008KT 9999 BKN025
PROB30
TEMPO 3013/3017 02015G25KT

Source NOAA


MET'MAP, your aeronautical weather chart ! - Copyright ORBIFLY December 2007

Programming & Development : Alexandra Zaïnal
Co-Developer : Marc-Olivier Méhu
Technical & hardware support : Manuel Goepfert
Concept & Financing : Baudouin d'Aumeries